Time;durP1;ratioP1;P1;durP2;ratioP2;P2;SDS_P1;SDS_P2;PMS_P1;PMS_P2;Temp;Humidity;BMP_temperature;BMP_pressure;BME280_temperature;BME280_humidity;BME280_pressure;Samples;Min_cycle;Max_cycle;Signal;HPM_P1;HPM_P2
2021/10/06 00:00:21;;;;;;;0.30;0.30;;;10.60;99.90;;;;;;5013184;28;20456;-79
2021/10/06 00:02:49;;;;;;;0.30;0.30;;;10.60;99.90;;;;;;5013216;28;20450;-80
2021/10/06 00:05:15;;;;;;;0.30;0.30;;;10.60;99.90;;;;;;5013649;28;20448;-80
2021/10/06 00:07:42;;;;;;;0.30;0.20;;;10.60;99.90;;;;;;5013508;28;20427;-80
2021/10/06 00:10:10;;;;;;;0.30;0.20;;;10.60;99.90;;;;;;5013525;28;20502;-80
2021/10/06 00:12:37;;;;;;;0.30;0.20;;;10.60;99.90;;;;;;5013579;28;20463;-79
2021/10/06 00:15:05;;;;;;;0.30;0.30;;;10.60;99.90;;;;;;5013383;28;20452;-80
2021/10/06 00:17:32;;;;;;;0.30;0.20;;;10.60;99.90;;;;;;5013116;28;20947;-80
2021/10/06 00:20:01;;;;;;;3.23;1.63;;;10.60;99.90;;;;;;5017146;28;20450;-79
2021/10/06 00:22:27;;;;;;;0.30;0.27;;;10.60;99.90;;;;;;5017207;28;20451;-79
2021/10/06 00:24:54;;;;;;;0.33;0.33;;;10.60;99.90;;;;;;5016910;28;20440;-80
2021/10/06 00:27:21;;;;;;;0.37;0.37;;;10.60;99.90;;;;;;5017515;28;20450;-81
2021/10/06 00:29:48;;;;;;;0.30;0.30;;;10.50;99.90;;;;;;5017218;28;20498;-80
2021/10/06 00:32:15;;;;;;;0.60;0.27;;;10.50;99.90;;;;;;5017001;28;20459;-80
2021/10/06 00:34:41;;;;;;;0.30;0.20;;;10.50;99.90;;;;;;5016664;28;20947;-80
2021/10/06 00:37:10;;;;;;;0.30;0.30;;;10.50;99.90;;;;;;5016943;28;20455;-81
2021/10/06 00:39:36;;;;;;;0.30;0.30;;;10.50;99.90;;;;;;5016656;28;20441;-81
2021/10/06 00:42:03;;;;;;;0.40;0.30;;;10.50;99.90;;;;;;5016784;28;20468;-80
2021/10/06 00:44:34;;;;;;;0.30;0.30;;;10.50;99.90;;;;;;5016793;28;20446;-79
2021/10/06 00:47:01;;;;;;;0.40;0.40;;;10.40;99.90;;;;;;5016408;28;20529;-80
2021/10/06 00:49:28;;;;;;;0.37;0.30;;;10.50;99.90;;;;;;5016932;28;20483;-80
2021/10/06 00:51:55;;;;;;;0.30;0.20;;;10.40;99.90;;;;;;5016367;28;20460;-82
2021/10/06 00:54:23;;;;;;;0.30;0.20;;;10.40;99.90;;;;;;5016871;28;20451;-80
2021/10/06 00:56:50;;;;;;;0.30;0.30;;;10.40;99.90;;;;;;5016560;28;20452;-79
2021/10/06 00:59:17;;;;;;;0.30;0.30;;;10.40;99.90;;;;;;5016519;28;20469;-80
2021/10/06 01:01:43;;;;;;;0.30;0.20;;;10.40;99.90;;;;;;5016396;28;20478;-80
2021/10/06 01:04:10;;;;;;;0.30;0.20;;;10.40;99.90;;;;;;5016122;28;20970;-80
2021/10/06 01:06:37;;;;;;;0.30;0.20;;;10.40;99.90;;;;;;5016075;28;20830;-80
2021/10/06 01:09:05;;;;;;;0.30;0.30;;;10.40;99.90;;;;;;5017092;28;20488;-81
2021/10/06 01:11:33;;;;;;;0.30;0.20;;;10.30;99.90;;;;;;5015934;28;21001;-80
2021/10/06 01:14:00;;;;;;;0.80;0.40;;;10.30;99.90;;;;;;5016021;28;20443;-79
2021/10/06 01:16:26;;;;;;;0.30;0.30;;;10.30;99.90;;;;;;5016185;28;20460;-79
2021/10/06 01:18:53;;;;;;;0.30;0.30;;;10.30;99.90;;;;;;5015867;28;20962;-80
2021/10/06 01:21:21;;;;;;;0.40;0.30;;;10.30;99.90;;;;;;5016026;28;20475;-79
2021/10/06 01:23:49;;;;;;;0.50;0.30;;;10.30;99.90;;;;;;5015767;28;20447;-79
2021/10/06 01:26:19;;;;;;;0.30;0.20;;;10.30;99.90;;;;;;5016022;28;20451;-80
2021/10/06 01:28:46;;;;;;;0.30;0.20;;;10.30;99.90;;;;;;5015540;28;20511;-80
2021/10/06 01:31:13;;;;;;;0.30;0.20;;;10.30;99.90;;;;;;5015877;28;20463;-79
2021/10/06 01:33:40;;;;;;;0.30;0.20;;;10.20;99.90;;;;;;5015889;28;20460;-79
2021/10/06 01:36:07;;;;;;;0.30;0.30;;;10.20;99.90;;;;;;5015520;28;20939;-79
2021/10/06 01:38:35;;;;;;;0.30;0.20;;;10.20;99.90;;;;;;5015810;28;20444;-79
2021/10/06 01:41:03;;;;;;;0.30;0.30;;;10.20;99.90;;;;;;5015343;28;20839;-80
2021/10/06 01:43:30;;;;;;;0.67;0.67;;;10.20;99.90;;;;;;5015951;28;20451;-79
2021/10/06 01:45:56;;;;;;;0.40;0.30;;;10.20;99.90;;;;;;5015380;28;20479;-80
2021/10/06 01:48:23;;;;;;;0.30;0.30;;;10.10;99.90;;;;;;5015299;28;20455;-79
2021/10/06 01:50:50;;;;;;;0.30;0.20;;;10.10;99.90;;;;;;5015417;28;20494;-79
2021/10/06 01:53:17;;;;;;;0.30;0.20;;;10.20;99.90;;;;;;5015244;28;20455;-81
2021/10/06 01:55:45;;;;;;;0.30;0.30;;;10.20;99.90;;;;;;5015442;28;20439;-79
2021/10/06 01:58:14;;;;;;;0.30;0.20;;;10.10;99.90;;;;;;5015594;28;20452;-80
2021/10/06 02:00:43;;;;;;;0.30;0.20;;;10.10;99.90;;;;;;5015302;28;20463;-79
2021/10/06 02:03:10;;;;;;;0.30;0.30;;;10.10;99.90;;;;;;5015304;28;20458;-79
2021/10/06 02:05:37;;;;;;;0.30;0.30;;;10.10;99.90;;;;;;5015267;28;20462;-81
2021/10/06 02:08:05;;;;;;;0.30;0.30;;;10.00;99.90;;;;;;5014941;28;20901;-80
2021/10/06 02:10:32;;;;;;;0.30;0.20;;;10.00;99.90;;;;;;5015023;28;20492;-79
2021/10/06 02:13:00;;;;;;;0.40;0.30;;;10.00;99.90;;;;;;5014831;28;20447;-79
2021/10/06 02:15:27;;;;;;;0.30;0.20;;;10.00;99.90;;;;;;5015371;28;20447;-79
2021/10/06 02:17:54;;;;;;;0.30;0.30;;;10.00;99.90;;;;;;5015162;28;20451;-79
2021/10/06 02:20:22;;;;;;;0.30;0.20;;;10.00;99.90;;;;;;5014920;28;20471;-79
2021/10/06 02:22:49;;;;;;;0.70;0.33;;;10.00;99.90;;;;;;5014643;28;20453;-79
2021/10/06 02:25:16;;;;;;;0.30;0.23;;;10.00;99.90;;;;;;5014815;28;20970;-79
2021/10/06 02:27:43;;;;;;;0.30;0.20;;;9.90;99.90;;;;;;5014601;28;20824;-79
2021/10/06 02:30:12;;;;;;;0.30;0.20;;;9.90;99.90;;;;;;5014720;28;20490;-79
2021/10/06 02:32:40;;;;;;;0.30;0.30;;;9.90;99.90;;;;;;5014819;28;20459;-79
2021/10/06 02:35:08;;;;;;;0.30;0.27;;;9.90;99.90;;;;;;5014537;28;20458;-79
2021/10/06 02:37:35;;;;;;;0.30;0.30;;;9.80;99.90;;;;;;5014751;28;20452;-79
2021/10/06 02:40:02;;;;;;;0.30;0.30;;;9.80;99.90;;;;;;5014427;28;20459;-79
2021/10/06 02:42:29;;;;;;;0.30;0.30;;;9.80;99.90;;;;;;5014483;28;20455;-81
2021/10/06 02:44:55;;;;;;;0.30;0.20;;;9.80;99.90;;;;;;5014773;28;20463;-79
2021/10/06 02:47:23;;;;;;;0.30;0.30;;;9.80;99.90;;;;;;5014107;28;20495;-79
2021/10/06 02:49:50;;;;;;;0.30;0.20;;;9.70;99.90;;;;;;5014320;28;20850;-80
2021/10/06 02:52:17;;;;;;;0.30;0.20;;;9.70;99.90;;;;;;5014682;28;20448;-80
2021/10/06 02:54:44;;;;;;;0.40;0.30;;;9.70;99.90;;;;;;5014418;28;20474;-80
2021/10/06 02:57:10;;;;;;;0.30;0.30;;;9.60;99.90;;;;;;5014347;28;20939;-80
2021/10/06 02:59:37;;;;;;;1.03;0.30;;;9.60;99.90;;;;;;5014352;28;20466;-81
2021/10/06 03:02:04;;;;;;;0.30;0.30;;;9.60;99.90;;;;;;5013952;28;20460;-80
2021/10/06 03:04:32;;;;;;;0.30;0.30;;;9.60;99.90;;;;;;5013999;28;20447;-79
2021/10/06 03:06:59;;;;;;;0.30;0.30;;;9.70;99.90;;;;;;5014222;28;20456;-79
2021/10/06 03:09:25;;;;;;;0.30;0.20;;;9.60;99.90;;;;;;5014101;28;20483;-79
2021/10/06 03:11:52;;;;;;;0.30;0.20;;;9.60;99.90;;;;;;5014033;28;20500;-80
2021/10/06 03:14:19;;;;;;;0.30;0.30;;;9.60;99.90;;;;;;5014077;28;20451;-80
2021/10/06 03:16:46;;;;;;;0.30;0.20;;;9.60;99.90;;;;;;5014089;28;20432;-79
2021/10/06 03:19:12;;;;;;;0.30;0.30;;;9.50;99.90;;;;;;5013709;28;20958;-79
2021/10/06 03:21:40;;;;;;;5.43;1.00;;;9.50;99.90;;;;;;5013663;28;20459;-79
2021/10/06 03:24:07;;;;;;;0.30;0.20;;;9.40;99.90;;;;;;5013663;28;20943;-80
2021/10/06 03:26:34;;;;;;;0.30;0.30;;;9.50;99.90;;;;;;5013889;28;20443;-80
2021/10/06 03:29:01;;;;;;;0.40;0.30;;;9.50;99.90;;;;;;5014630;28;20466;-79
2021/10/06 03:31:28;;;;;;;0.30;0.30;;;9.40;99.90;;;;;;5013490;28;20467;-79
2021/10/06 03:33:57;;;;;;;0.30;0.30;;;9.40;99.90;;;;;;5013493;28;20443;-80
2021/10/06 03:36:23;;;;;;;0.30;0.30;;;9.40;99.90;;;;;;5013984;28;20447;-81
2021/10/06 03:38:51;;;;;;;0.30;0.30;;;9.40;99.90;;;;;;5013457;28;20944;-80
2021/10/06 03:41:18;;;;;;;0.30;0.27;;;9.40;99.90;;;;;;5013647;28;20466;-80
2021/10/06 03:43:45;;;;;;;0.30;0.20;;;9.30;99.90;;;;;;5013721;28;20812;-81
2021/10/06 03:46:12;;;;;;;0.30;0.30;;;9.30;99.90;;;;;;5013223;28;20479;-79
2021/10/06 03:48:39;;;;;;;0.70;0.30;;;9.30;99.90;;;;;;5013627;28;20451;-80
2021/10/06 03:51:05;;;;;;;0.30;0.30;;;9.20;99.90;;;;;;5013498;28;20522;-79
2021/10/06 03:53:32;;;;;;;0.30;0.20;;;9.20;99.90;;;;;;5019094;28;20846;-80
2021/10/06 03:56:00;;;;;;;0.30;0.20;;;9.20;99.90;;;;;;5020132;28;20455;-79
2021/10/06 03:58:27;;;;;;;0.30;0.30;;;9.10;99.90;;;;;;5020151;28;20455;-80
2021/10/06 04:00:53;;;;;;;0.30;0.30;;;9.10;99.90;;;;;;5019690;28;20474;-80
2021/10/06 04:03:21;;;;;;;0.40;0.40;;;9.10;99.90;;;;;;5020085;28;20447;-80
2021/10/06 04:05:48;;;;;;;1.37;0.67;;;9.10;99.90;;;;;;5019993;28;20533;-79
2021/10/06 04:08:17;;;;;;;0.30;0.30;;;9.10;99.90;;;;;;5019760;28;20446;-79
2021/10/06 04:10:44;;;;;;;0.30;0.30;;;9.10;99.90;;;;;;5019948;28;20498;-79
2021/10/06 04:13:12;;;;;;;0.30;0.30;;;9.10;99.90;;;;;;5019966;28;20455;-79
2021/10/06 04:15:39;;;;;;;0.40;0.30;;;9.10;99.90;;;;;;5019951;28;20791;-79
2021/10/06 04:18:06;;;;;;;0.30;0.30;;;9.20;99.90;;;;;;5019596;28;20951;-79
2021/10/06 04:20:32;;;;;;;0.93;0.30;;;9.20;99.90;;;;;;5019805;28;20463;-79
2021/10/06 04:22:59;;;;;;;0.40;0.40;;;9.20;99.90;;;;;;5019947;28;20446;-79
2021/10/06 04:25:26;;;;;;;0.40;0.20;;;9.10;99.90;;;;;;5019887;28;20456;-79
2021/10/06 04:27:53;;;;;;;0.30;0.20;;;9.10;99.90;;;;;;5019753;28;20789;-78
2021/10/06 04:30:21;;;;;;;0.30;0.30;;;9.20;99.90;;;;;;5019690;28;20860;-78
2021/10/06 04:32:47;;;;;;;0.50;0.30;;;9.20;99.90;;;;;;5019823;28;20817;-78
2021/10/06 04:35:14;;;;;;;0.30;0.20;;;9.20;99.90;;;;;;5019397;28;20458;-78
2021/10/06 04:37:41;;;;;;;0.30;0.27;;;9.10;99.90;;;;;;5019729;28;20455;-78
2021/10/06 04:40:09;;;;;;;0.30;0.30;;;9.10;99.90;;;;;;5019658;28;20463;-78
2021/10/06 04:42:36;;;;;;;0.40;0.30;;;9.10;99.90;;;;;;5019681;28;20458;-78
2021/10/06 04:45:04;;;;;;;0.30;0.30;;;9.10;99.90;;;;;;5019689;28;20455;-78
2021/10/06 04:47:32;;;;;;;0.30;0.20;;;9.10;99.90;;;;;;5018890;28;20970;-81
2021/10/06 04:49:59;;;;;;;0.30;0.30;;;9.10;99.90;;;;;;5019543;28;20490;-79
2021/10/06 04:52:25;;;;;;;0.30;0.20;;;9.20;99.90;;;;;;5019638;28;20457;-78
2021/10/06 04:54:53;;;;;;;0.30;0.20;;;9.20;99.90;;;;;;5019612;28;20505;-78
2021/10/06 04:57:20;;;;;;;0.47;0.30;;;9.20;99.90;;;;;;5019529;28;20481;-79
2021/10/06 04:59:46;;;;;;;0.30;0.30;;;9.20;99.90;;;;;;5019581;28;20451;-78
2021/10/06 05:02:13;;;;;;;0.30;0.20;;;9.20;99.90;;;;;;5019559;28;20446;-79
2021/10/06 05:04:41;;;;;;;0.30;0.30;;;9.20;99.90;;;;;;5016604;28;20483;-79
2021/10/06 05:07:08;;;;;;;0.30;0.20;;;9.20;99.90;;;;;;5016110;28;20955;-78
2021/10/06 05:09:35;;;;;;;0.30;0.20;;;9.10;99.90;;;;;;5016293;28;20458;-78
2021/10/06 05:12:02;;;;;;;0.30;0.30;;;9.10;99.90;;;;;;5015913;28;20464;-78
2021/10/06 05:14:28;;;;;;;1.63;0.83;;;9.20;99.90;;;;;;5016268;28;20527;-78
2021/10/06 05:16:55;;;;;;;0.40;0.30;;;9.20;99.90;;;;;;5016281;28;20490;-78
2021/10/06 05:19:22;;;;;;;0.30;0.20;;;9.20;99.90;;;;;;5015797;28;20859;-77
2021/10/06 05:21:50;;;;;;;0.37;0.30;;;9.20;99.90;;;;;;5015830;28;20991;-77
2021/10/06 05:24:17;;;;;;;0.40;0.30;;;9.20;99.90;;;;;;5016073;28;20451;-78
2021/10/06 05:26:44;;;;;;;0.30;0.20;;;9.20;99.90;;;;;;5015681;28;20455;-78
2021/10/06 05:29:11;;;;;;;0.30;0.30;;;9.20;99.90;;;;;;5016218;28;20455;-78
2021/10/06 05:31:37;;;;;;;0.40;0.30;;;9.20;99.90;;;;;;5016073;28;20487;-78
2021/10/06 05:34:04;;;;;;;0.30;0.20;;;9.20;99.90;;;;;;5015913;28;20459;-78
2021/10/06 05:36:31;;;;;;;0.40;0.30;;;9.20;99.90;;;;;;5015590;28;20446;-79
2021/10/06 05:38:59;;;;;;;0.60;0.60;;;9.30;99.90;;;;;;5015777;28;20447;-78
2021/10/06 05:41:25;;;;;;;0.30;0.20;;;9.30;99.90;;;;;;5015750;28;20468;-78
2021/10/06 05:43:52;;;;;;;0.30;0.30;;;9.30;99.90;;;;;;5015694;28;20463;-78
2021/10/06 05:46:19;;;;;;;0.30;0.30;;;9.20;99.90;;;;;;5015375;28;20486;-78
2021/10/06 05:48:46;;;;;;;0.30;0.20;;;9.20;99.90;;;;;;5015639;28;20478;-80
2021/10/06 05:51:13;;;;;;;0.30;0.20;;;9.20;99.90;;;;;;5015456;28;20483;-78
2021/10/06 05:53:40;;;;;;;0.30;0.20;;;9.20;99.90;;;;;;5015539;28;20459;-80
2021/10/06 05:56:08;;;;;;;0.40;0.30;;;9.20;99.90;;;;;;5015464;28;20456;-80
2021/10/06 05:58:35;;;;;;;0.30;0.30;;;9.20;99.90;;;;;;5015827;28;20482;-79
2021/10/06 06:01:01;;;;;;;0.30;0.30;;;9.20;99.90;;;;;;5015002;28;20471;-78
2021/10/06 06:03:28;;;;;;;0.30;0.20;;;9.20;99.90;;;;;;5015385;28;20454;-78
2021/10/06 06:05:55;;;;;;;0.40;0.40;;;9.10;99.90;;;;;;5014892;28;20939;-77
2021/10/06 06:08:21;;;;;;;0.30;0.20;;;9.10;99.90;;;;;;5015527;28;20444;-78
2021/10/06 06:10:48;;;;;;;0.40;0.30;;;9.10;99.90;;;;;;5014758;28;20849;-77
2021/10/06 06:13:16;;;;;;;0.30;0.20;;;9.20;99.90;;;;;;5015108;28;20459;-78
2021/10/06 06:15:43;;;;;;;0.30;0.20;;;9.10;99.90;;;;;;5013987;28;20448;-78
2021/10/06 06:18:10;;;;;;;2.00;0.90;;;9.10;99.90;;;;;;5014781;28;20966;-78
2021/10/06 06:20:36;;;;;;;0.30;0.20;;;9.10;99.90;;;;;;5015219;28;20468;-79
2021/10/06 06:23:04;;;;;;;0.40;0.30;;;9.10;99.90;;;;;;5014757;28;20471;-79
2021/10/06 06:25:31;;;;;;;0.30;0.30;;;9.20;99.90;;;;;;5014990;28;20466;-79
2021/10/06 06:27:58;;;;;;;0.40;0.30;;;9.20;99.90;;;;;;5014939;28;20436;-79
2021/10/06 06:30:26;;;;;;;0.30;0.20;;;9.20;99.90;;;;;;5015423;28;21005;-79
2021/10/06 06:32:53;;;;;;;3.37;0.30;;;9.20;99.90;;;;;;5014854;28;20900;-80
2021/10/06 06:35:19;;;;;;;0.30;0.20;;;9.20;99.90;;;;;;5014493;28;20439;-79
2021/10/06 06:37:46;;;;;;;0.30;0.30;;;9.20;99.90;;;;;;5014747;28;20440;-79
2021/10/06 06:40:14;;;;;;;0.37;0.27;;;9.30;99.90;;;;;;5014882;28;20471;-80
2021/10/06 06:42:41;;;;;;;2.10;0.50;;;9.30;99.90;;;;;;5014637;28;20431;-78
2021/10/06 06:45:09;;;;;;;0.30;0.20;;;9.30;99.90;;;;;;5014387;28;20463;-78
2021/10/06 06:47:39;;;;;;;0.30;0.27;;;9.30;99.90;;;;;;5014228;28;20468;-78
2021/10/06 06:50:06;;;;;;;0.30;0.20;;;9.40;99.90;;;;;;5014433;28;20476;-79
2021/10/06 06:52:33;;;;;;;0.37;0.27;;;9.40;99.90;;;;;;5014179;28;20923;-79
2021/10/06 06:55:00;;;;;;;0.30;0.20;;;9.50;99.90;;;;;;5014435;28;20439;-79
2021/10/06 06:57:27;;;;;;;0.30;0.27;;;9.50;99.90;;;;;;5014369;28;20463;-78
2021/10/06 06:59:53;;;;;;;0.30;0.20;;;9.50;99.90;;;;;;5014271;28;20470;-79
2021/10/06 07:02:20;;;;;;;0.30;0.30;;;9.60;99.90;;;;;;5014025;28;20443;-79
2021/10/06 07:04:48;;;;;;;0.30;0.30;;;9.60;99.90;;;;;;5013924;28;20439;-78
2021/10/06 07:07:15;;;;;;;0.30;0.23;;;9.60;99.90;;;;;;5013985;28;20436;-79
2021/10/06 07:09:48;;;;;;;0.30;0.27;;;9.60;99.90;;;;;;5014027;28;20812;-78
2021/10/06 07:12:14;;;;;;;0.30;0.30;;;9.70;99.90;;;;;;5013795;28;21025;-78
2021/10/06 07:14:41;;;;;;;0.30;0.30;;;9.80;99.90;;;;;;5014135;28;20467;-78
2021/10/06 07:17:08;;;;;;;0.40;0.30;;;9.80;99.90;;;;;;5014070;28;20455;-78
2021/10/06 07:19:35;;;;;;;1.03;0.30;;;9.90;99.90;;;;;;5013983;28;20448;-78
2021/10/06 07:22:04;;;;;;;0.33;0.30;;;9.90;99.90;;;;;;5013895;28;20467;-79
2021/10/06 07:24:31;;;;;;;0.30;0.30;;;10.00;99.90;;;;;;5014537;28;20482;-82
2021/10/06 07:26:58;;;;;;;0.53;0.53;;;10.10;99.90;;;;;;5013529;28;20450;-85
2021/10/06 07:29:25;;;;;;;0.30;0.30;;;10.20;99.90;;;;;;5013912;28;20458;-83
2021/10/06 07:31:51;;;;;;;0.40;0.40;;;10.30;99.90;;;;;;5013403;28;20995;-83
2021/10/06 07:34:18;;;;;;;0.30;0.30;;;10.40;99.90;;;;;;5013640;28;20808;-82
2021/10/06 07:36:45;;;;;;;0.33;0.30;;;10.50;99.90;;;;;;5013801;28;20448;-83
2021/10/06 07:39:13;;;;;;;0.30;0.30;;;10.50;99.90;;;;;;5013790;28;20462;-82
2021/10/06 07:41:40;;;;;;;0.30;0.30;;;10.50;99.90;;;;;;5013327;28;21001;-82
2021/10/06 07:44:07;;;;;;;0.30;0.30;;;10.50;99.90;;;;;;5014319;28;20799;-82
2021/10/06 07:46:34;;;;;;;0.30;0.20;;;10.60;99.90;;;;;;5013448;28;20479;-83
2021/10/06 07:49:00;;;;;;;0.30;0.30;;;10.60;99.90;;;;;;5013447;28;20443;-82
2021/10/06 07:51:27;;;;;;;0.40;0.30;;;10.80;99.90;;;;;;5013168;28;20995;-83
2021/10/06 07:53:54;;;;;;;0.30;0.20;;;11.00;99.90;;;;;;5013689;28;20420;-83
2021/10/06 07:56:23;;;;;;;0.40;0.40;;;11.20;99.90;;;;;;5013320;28;20994;-81
2021/10/06 07:58:50;;;;;;;0.30;0.30;;;11.30;99.90;;;;;;5013589;28;20520;-83
2021/10/06 08:01:17;;;;;;;0.30;0.27;;;11.50;99.90;;;;;;5013184;28;20482;-83
2021/10/06 08:03:44;;;;;;;0.40;0.30;;;11.70;99.90;;;;;;5014121;28;20451;-83
2021/10/06 08:06:11;;;;;;;0.30;0.30;;;11.80;99.90;;;;;;5013560;28;20435;-82
2021/10/06 08:08:37;;;;;;;0.30;0.27;;;11.90;99.90;;;;;;5013524;28;20436;-81
2021/10/06 08:11:05;;;;;;;0.40;0.40;;;11.90;99.90;;;;;;5013391;28;20579;-81
2021/10/06 08:13:33;;;;;;;0.30;0.30;;;11.80;99.90;;;;;;5013529;28;20416;-81
2021/10/06 08:16:00;;;;;;;0.30;0.20;;;11.70;99.90;;;;;;5013492;28;20458;-82
2021/10/06 08:18:27;;;;;;;0.30;0.20;;;11.70;99.90;;;;;;5013155;28;20946;-82
2021/10/06 08:20:56;;;;;;;0.30;0.20;;;11.60;99.90;;;;;;5013420;28;20475;-86
2021/10/06 08:23:26;;;;;;;0.30;0.30;;;11.70;99.90;;;;;;5013430;28;20436;-82
2021/10/06 08:25:53;;;;;;;0.30;0.30;;;11.70;99.90;;;;;;5013615;28;20440;-81
2021/10/06 08:28:20;;;;;;;0.30;0.30;;;11.70;99.90;;;;;;5013141;28;20440;-82
2021/10/06 08:30:49;;;;;;;0.40;0.40;;;11.70;99.90;;;;;;5013178;28;20467;-82
2021/10/06 08:33:16;;;;;;;0.40;0.30;;;11.60;99.90;;;;;;5013318;28;20443;-81
2021/10/06 08:35:43;;;;;;;0.50;0.50;;;11.60;99.90;;;;;;5013280;28;20435;-81
2021/10/06 08:38:10;;;;;;;0.30;0.30;;;11.50;99.90;;;;;;5012966;28;20436;-81
2021/10/06 08:40:38;;;;;;;0.30;0.23;;;11.40;99.90;;;;;;5016261;28;20475;-81
2021/10/06 08:43:06;;;;;;;0.30;0.30;;;11.40;99.90;;;;;;5016977;28;20412;-81
2021/10/06 08:45:33;;;;;;;0.30;0.20;;;11.40;99.90;;;;;;5016733;28;20895;-80
2021/10/06 08:48:03;;;;;;;0.30;0.20;;;11.40;99.90;;;;;;5016581;28;20942;-83
2021/10/06 08:50:30;;;;;;;0.30;0.20;;;11.40;99.90;;;;;;5016713;28;20994;-80
2021/10/06 08:52:57;;;;;;;0.30;0.30;;;11.60;99.90;;;;;;5017448;28;20474;-81
2021/10/06 08:55:28;;;;;;;0.30;0.20;;;11.90;99.90;;;;;;5016436;28;20439;-81
2021/10/06 08:57:54;;;;;;;0.40;0.30;;;12.40;99.90;;;;;;5016647;28;20439;-82
2021/10/06 09:00:21;;;;;;;0.30;0.20;;;12.50;99.90;;;;;;5016542;28;20486;-82
2021/10/06 09:02:48;;;;;;;0.30;0.30;;;12.50;99.90;;;;;;5016656;28;20427;-83
2021/10/06 09:05:22;;;;;;;0.30;0.30;;;12.30;99.90;;;;;;5016529;28;20436;-84
2021/10/06 09:07:58;;;;;;;2.40;1.63;;;12.30;99.90;;;;;;5016170;28;20459;-84
2021/10/06 09:10:26;;;;;;;0.30;0.30;;;12.20;99.90;;;;;;5016074;28;20819;-84
2021/10/06 09:12:58;;;;;;;0.30;0.30;;;12.40;99.90;;;;;;5016397;28;20478;-84
2021/10/06 09:15:25;;;;;;;0.40;0.30;;;12.40;99.90;;;;;;5016548;28;20416;-84
2021/10/06 09:17:54;;;;;;;1.30;1.20;;;12.40;99.90;;;;;;5016269;28;20436;-83
2021/10/06 09:20:22;;;;;;;0.30;0.30;;;12.50;99.90;;;;;;5016218;28;20826;-83
2021/10/06 09:23:01;;;;;;;0.30;0.30;;;12.90;99.90;;;;;;5016261;28;20432;-83
2021/10/06 09:25:36;;;;;;;0.30;0.30;;;14.00;99.90;;;;;;5016267;28;20444;-84
2021/10/06 09:28:06;;;;;;;0.30;0.30;;;14.90;99.90;;;;;;5016500;28;20428;-80
2021/10/06 09:30:34;;;;;;;1.03;0.70;;;15.70;99.90;;;;;;5015712;28;20503;-79
2021/10/06 09:33:03;;;;;;;1.93;1.17;;;16.10;99.90;;;;;;5015679;28;20460;-79
2021/10/06 09:35:32;;;;;;;0.30;0.30;;;16.50;99.90;;;;;;5015964;28;20448;-80
2021/10/06 09:37:59;;;;;;;0.30;0.27;;;16.40;99.90;;;;;;5015908;28;20514;-80
2021/10/06 09:40:28;;;;;;;0.40;0.40;;;16.30;99.90;;;;;;5015989;28;20510;-79
2021/10/06 09:42:56;;;;;;;1.60;0.60;;;16.50;99.90;;;;;;5015863;28;20434;-79
2021/10/06 09:45:26;;;;;;;0.30;0.30;;;16.70;99.90;;;;;;5015909;28;20466;-79
2021/10/06 09:48:03;;;;;;;0.37;0.37;;;16.40;99.90;;;;;;5015754;28;20432;-80
2021/10/06 09:50:32;;;;;;;1.07;0.30;;;15.70;99.90;;;;;;5015229;28;21045;-80
2021/10/06 09:53:07;;;;;;;2.00;1.53;;;15.40;99.90;;;;;;5015715;28;20472;-79
2021/10/06 09:55:35;;;;;;;1.17;0.67;;;15.00;99.90;;;;;;5015215;28;20526;-80
2021/10/06 09:58:03;;;;;;;0.40;0.40;;;14.60;99.90;;;;;;5015592;28;20431;-79
2021/10/06 10:00:30;;;;;;;0.90;0.70;;;14.30;99.90;;;;;;5015117;28;20503;-80
2021/10/06 10:02:58;;;;;;;0.50;0.40;;;14.10;99.90;;;;;;5015739;28;20421;-79
2021/10/06 10:05:25;;;;;;;1.20;1.03;;;13.80;99.90;;;;;;5015401;28;20467;-79
2021/10/06 10:07:55;;;;;;;0.40;0.37;;;13.60;99.90;;;;;;5015081;28;20935;-80
2021/10/06 10:10:22;;;;;;;0.70;0.40;;;13.50;99.90;;;;;;5015397;28;20507;-80
2021/10/06 10:12:49;;;;;;;2.90;1.00;;;13.40;99.90;;;;;;5015751;28;20467;-79
2021/10/06 10:15:19;;;;;;;1.10;0.47;;;13.30;99.90;;;;;;5014950;28;20916;-80
2021/10/06 10:17:51;;;;;;;0.50;0.37;;;13.30;99.90;;;;;;5015344;28;20447;-80
2021/10/06 10:20:18;;;;;;;0.50;0.50;;;13.10;99.90;;;;;;5015052;28;20467;-80
2021/10/06 10:22:48;;;;;;;0.30;0.30;;;12.80;99.90;;;;;;5015125;28;20436;-81
2021/10/06 10:25:18;;;;;;;0.50;0.30;;;12.60;99.90;;;;;;5015768;28;20454;-81
2021/10/06 10:28:07;;;;;;;0.37;0.33;;;12.80;99.90;;;;;;5014988;28;20436;-80
2021/10/06 10:30:37;;;;;;;1.20;0.30;;;13.80;99.90;;;;;;5014918;28;20478;-80
2021/10/06 10:33:04;;;;;;;0.30;0.30;;;14.30;99.90;;;;;;5014868;28;20876;-80
2021/10/06 10:35:36;;;;;;;0.43;0.43;;;14.40;99.90;;;;;;5014826;28;20454;-80
2021/10/06 10:38:11;;;;;;;0.50;0.50;;;15.10;99.90;;;;;;5014875;28;20439;-80
2021/10/06 10:40:42;;;;;;;2.67;0.97;;;16.10;99.90;;;;;;5014774;28;20522;-80
2021/10/06 10:43:10;;;;;;;0.83;0.70;;;17.20;99.90;;;;;;5014456;28;20519;-79
2021/10/06 10:45:47;;;;;;;1.37;0.47;;;18.00;99.90;;;;;;5014596;28;20798;-79
2021/10/06 10:48:16;;;;;;;0.30;0.30;;;18.70;99.90;;;;;;5014643;28;20466;-79
2021/10/06 10:51:06;;;;;;;0.70;0.40;;;19.20;99.90;;;;;;5014357;28;20456;-80
2021/10/06 10:53:56;;;;;;;0.30;0.30;;;18.70;99.90;;;;;;5014161;28;20467;-79
2021/10/06 10:56:28;;;;;;;0.40;0.30;;;18.00;99.90;;;;;;5014769;28;20440;-80
2021/10/06 10:59:08;;;;;;;0.30;0.27;;;17.10;99.90;;;;;;5014201;28;20452;-80
2021/10/06 11:01:43;;;;;;;0.93;0.50;;;16.30;99.90;;;;;;5013503;28;20979;-80
2021/10/06 11:04:16;;;;;;;0.50;0.40;;;15.90;99.90;;;;;;5014402;28;20794;-80
2021/10/06 11:06:44;;;;;;;1.20;0.43;;;15.50;99.90;;;;;;5014882;28;20432;-81
2021/10/06 11:09:46;;;;;;;1.00;0.40;;;15.30;99.90;;;;;;5014093;28;20943;-80
2021/10/06 11:12:49;;;;;;;0.30;0.30;;;15.00;99.90;;;;;;5014027;28;20471;-81
2021/10/06 11:15:32;;;;;;;0.30;0.20;;;14.80;99.90;;;;;;5015119;28;20462;-80
2021/10/06 11:18:13;;;;;;;1.47;0.93;;;14.60;99.90;;;;;;5014123;28;20494;-79
2021/10/06 11:20:42;;;;;;;0.30;0.30;;;14.20;99.90;;;;;;5013956;28;20460;-80
2021/10/06 11:23:39;;;;;;;0.63;0.43;;;14.20;99.90;;;;;;5014454;28;20420;-80
2021/10/06 11:26:09;;;;;;;0.40;0.30;;;14.00;99.90;;;;;;5014410;28;20455;-80
2021/10/06 11:28:38;;;;;;;0.37;0.33;;;14.00;99.90;;;;;;5013706;28;20471;-80
2021/10/06 11:31:07;;;;;;;0.30;0.30;;;13.90;99.90;;;;;;5013642;28;20822;-80
2021/10/06 11:33:34;;;;;;;0.40;0.30;;;14.00;99.90;;;;;;5013941;28;20479;-80
2021/10/06 11:36:13;;;;;;;0.30;0.30;;;14.10;99.90;;;;;;5014210;28;20462;-80
2021/10/06 11:38:42;;;;;;;0.30;0.30;;;14.20;99.90;;;;;;5013615;28;20451;-80
2021/10/06 11:41:09;;;;;;;0.30;0.30;;;14.20;99.90;;;;;;5013639;28;20494;-80
2021/10/06 11:43:41;;;;;;;0.40;0.30;;;14.20;99.90;;;;;;5013736;28;20475;-80
2021/10/06 11:46:13;;;;;;;0.30;0.30;;;14.20;99.90;;;;;;5013510;28;20490;-80
2021/10/06 11:48:39;;;;;;;1.17;0.40;;;14.20;99.90;;;;;;5013488;28;20439;-80
2021/10/06 11:51:06;;;;;;;0.30;0.30;;;14.30;99.90;;;;;;5014348;28;20827;-80
2021/10/06 11:53:45;;;;;;;0.30;0.27;;;14.30;99.90;;;;;;5013649;28;20478;-80
2021/10/06 11:56:23;;;;;;;0.30;0.30;;;14.40;99.90;;;;;;5013388;28;20423;-80
2021/10/06 11:58:50;;;;;;;0.30;0.20;;;14.30;99.90;;;;;;5013311;28;20446;-80
2021/10/06 12:01:19;;;;;;;0.30;0.20;;;14.30;99.90;;;;;;5013570;28;20471;-80
2021/10/06 12:03:46;;;;;;;0.30;0.20;;;14.20;99.90;;;;;;5013289;28;20888;-80
2021/10/06 12:06:19;;;;;;;0.30;0.20;;;14.10;99.90;;;;;;5013441;28;20419;-81
2021/10/06 12:08:46;;;;;;;0.40;0.30;;;13.80;99.90;;;;;;5013614;28;20778;-81
2021/10/06 12:11:13;;;;;;;0.40;0.40;;;13.50;99.90;;;;;;5013456;28;20483;-81
2021/10/06 12:13:42;;;;;;;0.30;0.30;;;13.30;99.90;;;;;;5015127;28;20472;-80
2021/10/06 12:16:28;;;;;;;0.30;0.20;;;13.10;99.90;;;;;;5017224;28;20901;-81
2021/10/06 12:18:57;;;;;;;0.30;0.30;;;12.80;99.90;;;;;;5017378;28;20435;-81
2021/10/06 12:21:24;;;;;;;0.30;0.30;;;12.70;99.90;;;;;;5017275;28;20471;-80
2021/10/06 12:23:51;;;;;;;0.60;0.30;;;12.50;99.90;;;;;;5017540;28;20432;-81
2021/10/06 12:26:20;;;;;;;3.57;0.30;;;12.50;99.90;;;;;;5017251;28;20443;-80
2021/10/06 12:28:55;;;;;;;0.40;0.30;;;12.50;99.90;;;;;;5017921;28;20874;-81
2021/10/06 12:31:24;;;;;;;0.30;0.30;;;12.50;99.90;;;;;;5017341;28;20466;-81
2021/10/06 12:34:03;;;;;;;0.30;0.30;;;12.50;99.90;;;;;;5017020;28;20542;-81
2021/10/06 12:36:30;;;;;;;0.40;0.30;;;12.50;99.90;;;;;;5016783;28;20812;-82
2021/10/06 12:38:56;;;;;;;0.30;0.30;;;12.60;99.90;;;;;;5017905;28;20448;-82
2021/10/06 12:41:25;;;;;;;0.30;0.20;;;12.60;99.90;;;;;;5016833;28;20824;-82
2021/10/06 12:43:52;;;;;;;0.30;0.20;;;12.70;99.90;;;;;;5017664;28;20531;-82
2021/10/06 12:46:24;;;;;;;0.40;0.30;;;12.70;99.90;;;;;;5016685;28;21037;-82
2021/10/06 12:48:54;;;;;;;0.30;0.23;;;12.80;99.90;;;;;;5016742;28;20498;-82
2021/10/06 12:51:28;;;;;;;0.40;0.30;;;12.80;99.90;;;;;;5016740;28;20471;-82
2021/10/06 12:53:56;;;;;;;0.30;0.30;;;12.80;99.90;;;;;;5016688;28;20471;-81
2021/10/06 12:56:28;;;;;;;0.50;0.50;;;12.80;99.90;;;;;;5016728;28;20440;-81